Time;durP1;ratioP1;P1;durP2;ratioP2;P2;SDS_P1;SDS_P2;PMS_P1;PMS_P2;Temp;Humidity;BMP_temperature;BMP_pressure;BME280_temperature;BME280_humidity;BME280_pressure;Samples;Min_cycle;Max_cycle;Signal;HPM_P1;HPM_P2
2021/03/22 00:00:34;;;;;;;42.30;29.77;;;2.50;99.90;;;;;;5092348;28;20103;-75
2021/03/22 00:03:01;;;;;;;39.10;28.92;;;2.50;99.90;;;;;;5092312;28;20016;-73
2021/03/22 00:05:27;;;;;;;48.42;33.20;;;2.50;99.90;;;;;;5092537;28;20024;-75
2021/03/22 00:07:54;;;;;;;45.25;30.42;;;2.40;99.90;;;;;;5074445;28;20379;-74
2021/03/22 00:10:25;;;;;;;44.80;32.10;;;2.40;99.90;;;;;;5093015;28;20043;-74
2021/03/22 00:12:52;;;;;;;47.63;34.80;;;2.50;99.90;;;;;;5092906;28;20095;-76
2021/03/22 00:15:19;;;;;;;52.85;36.13;;;2.40;99.90;;;;;;5092479;28;20031;-74
2021/03/22 00:17:46;;;;;;;56.85;39.80;;;2.60;99.90;;;;;;5074259;28;20020;-76
2021/03/22 00:20:13;;;;;;;52.75;38.05;;;2.60;99.90;;;;;;5092310;28;20247;-75
2021/03/22 00:22:39;;;;;;;58.13;39.80;;;2.70;99.90;;;;;;5074166;28;20030;-75
2021/03/22 00:25:06;;;;;;;55.17;38.90;;;2.60;99.90;;;;;;5074416;28;20417;-74
2021/03/22 00:27:32;;;;;;;50.85;36.15;;;2.60;99.90;;;;;;5092251;28;20028;-75
2021/03/22 00:29:58;;;;;;;48.28;34.42;;;2.50;99.90;;;;;;5092420;28;20084;-73
2021/03/22 00:32:23;;;;;;;41.60;30.35;;;2.40;99.90;;;;;;5092282;28;20024;-74
2021/03/22 00:34:49;;;;;;;40.97;29.33;;;2.50;99.90;;;;;;5092197;28;20042;-75
2021/03/22 00:37:15;;;;;;;43.78;31.55;;;2.60;99.90;;;;;;5073843;28;20115;-74
2021/03/22 00:39:41;;;;;;;43.42;31.85;;;2.70;99.90;;;;;;5073896;28;20077;-75
2021/03/22 00:42:07;;;;;;;44.38;31.17;;;2.70;99.90;;;;;;5092011;28;20020;-74
2021/03/22 00:44:33;;;;;;;58.22;36.10;;;2.70;99.90;;;;;;5091690;28;20028;-76
2021/03/22 00:46:59;;;;;;;61.40;41.55;;;3.00;99.90;;;;;;5091853;28;20107;-74
2021/03/22 00:49:24;;;;;;;51.78;36.28;;;3.40;99.90;;;;;;5091816;28;20084;-74
2021/03/22 00:51:50;;;;;;;84.20;50.08;;;3.40;99.90;;;;;;5091950;28;20416;-75
2021/03/22 00:54:16;;;;;;;101.50;57.33;;;3.50;99.90;;;;;;5091498;28;20044;-73
2021/03/22 00:56:42;;;;;;;63.42;42.47;;;3.60;99.90;;;;;;5091671;28;20023;-74
2021/03/22 00:59:07;;;;;;;47.28;34.33;;;3.70;99.90;;;;;;5091373;28;20027;-74
2021/03/22 01:01:34;;;;;;;42.63;29.80;;;3.40;99.90;;;;;;5090593;28;20100;-73
2021/03/22 01:04:00;;;;;;;41.83;30.55;;;3.10;99.90;;;;;;5082073;28;20069;-74
2021/03/22 01:06:26;;;;;;;42.05;31.52;;;3.20;99.90;;;;;;5091810;28;20101;-74
2021/03/22 01:08:51;;;;;;;49.17;33.67;;;2.90;99.90;;;;;;5091432;28;20032;-75
2021/03/22 01:11:21;;;;;;;46.45;34.65;;;2.90;99.90;;;;;;5091684;28;20502;-74
2021/03/22 01:13:53;;;;;;;50.10;35.03;;;2.90;99.90;;;;;;5090868;28;20024;-73
2021/03/22 01:16:34;;;;;;;51.92;36.33;;;2.90;99.90;;;;;;5091612;28;20039;-75
2021/03/22 01:19:13;;;;;;;49.50;35.47;;;2.80;99.90;;;;;;5091124;28;20631;-76
2021/03/22 01:21:53;;;;;;;48.50;34.90;;;2.70;99.90;;;;;;5091635;28;20144;-75
2021/03/22 01:24:21;;;;;;;44.92;34.10;;;2.50;99.90;;;;;;5091243;28;20032;-75
2021/03/22 01:26:52;;;;;;;48.30;35.10;;;2.60;99.90;;;;;;5091428;28;20082;-75
2021/03/22 01:29:21;;;;;;;51.38;35.80;;;2.60;99.90;;;;;;5091177;28;20028;-74
2021/03/22 01:31:47;;;;;;;52.53;36.90;;;2.70;99.90;;;;;;5091831;28;20097;-74
2021/03/22 01:34:13;;;;;;;48.35;35.08;;;2.70;99.90;;;;;;5075548;28;20540;-75
2021/03/22 01:36:40;;;;;;;48.58;35.88;;;2.60;99.90;;;;;;5077671;28;20028;-73
2021/03/22 01:39:18;;;;;;;51.35;35.20;;;2.40;99.90;;;;;;5095343;28;20028;-74
2021/03/22 01:42:02;;;;;;;45.15;32.03;;;2.00;99.90;;;;;;5095524;28;20552;-73
2021/03/22 01:44:28;;;;;;;48.53;35.17;;;1.80;99.90;;;;;;5095459;28;20387;-72
2021/03/22 01:47:03;;;;;;;53.70;35.60;;;2.10;99.90;;;;;;5095745;28;20487;-74
2021/03/22 01:49:34;;;;;;;51.30;37.17;;;2.00;99.90;;;;;;5095191;28;20042;-74
2021/03/22 01:52:00;;;;;;;47.20;35.28;;;2.20;99.90;;;;;;5095442;28;20051;-75
2021/03/22 01:54:26;;;;;;;54.42;36.53;;;2.40;99.90;;;;;;5095401;28;20395;-74
2021/03/22 01:56:55;;;;;;;50.20;34.65;;;2.40;99.90;;;;;;5095360;28;20027;-74
2021/03/22 01:59:30;;;;;;;47.42;34.38;;;2.30;99.90;;;;;;5094956;28;20399;-74
2021/03/22 02:02:01;;;;;;;47.92;32.92;;;2.10;99.90;;;;;;5095301;28;20063;-74
2021/03/22 02:04:28;;;;;;;49.38;34.05;;;2.20;99.90;;;;;;5095068;28;20027;-72
2021/03/22 02:06:54;;;;;;;47.47;33.08;;;2.40;99.90;;;;;;5095638;28;20043;-73
2021/03/22 02:09:20;;;;;;;50.35;33.47;;;2.60;99.90;;;;;;5094776;28;20035;-73
2021/03/22 02:11:46;;;;;;;49.28;33.97;;;2.50;99.90;;;;;;5076716;28;20399;-72
2021/03/22 02:14:12;;;;;;;42.85;31.67;;;2.50;99.90;;;;;;5094941;28;20077;-73
2021/03/22 02:17:06;;;;;;;46.00;32.03;;;2.60;99.90;;;;;;5094625;28;20024;-72
2021/03/22 02:20:10;;;;;;;49.88;33.58;;;2.50;99.90;;;;;;5094855;28;20023;-73
2021/03/22 02:23:00;;;;;;;47.17;33.72;;;2.50;99.90;;;;;;5044104;28;20051;-72
2021/03/22 02:25:47;;;;;;;48.67;34.45;;;2.30;99.90;;;;;;5094811;28;20044;-73
2021/03/22 02:28:30;;;;;;;46.92;32.65;;;2.50;99.90;;;;;;5094592;28;20024;-73
2021/03/22 02:31:02;;;;;;;42.97;33.35;;;2.60;99.90;;;;;;5094786;28;20383;-73
2021/03/22 02:34:04;;;;;;;44.28;32.15;;;2.80;99.90;;;;;;5094563;28;20020;-73
2021/03/22 02:36:41;;;;;;;41.08;31.13;;;2.70;99.90;;;;;;5094627;28;20709;-75
2021/03/22 02:39:07;;;;;;;44.22;31.95;;;2.70;99.90;;;;;;5094801;28;20028;-76
2021/03/22 02:41:47;;;;;;;43.28;31.65;;;2.70;99.90;;;;;;5094484;28;20032;-75
2021/03/22 02:44:20;;;;;;;44.28;31.02;;;2.70;99.90;;;;;;5094304;28;20464;-75
2021/03/22 02:46:53;;;;;;;46.55;31.45;;;2.70;99.90;;;;;;5094540;28;20023;-75
2021/03/22 02:49:19;;;;;;;44.50;32.67;;;2.80;99.90;;;;;;5076118;28;20028;-75
2021/03/22 02:52:16;;;;;;;43.30;31.98;;;2.80;99.90;;;;;;5094333;28;20044;-74
2021/03/22 02:55:06;;;;;;;44.03;30.13;;;2.70;99.90;;;;;;5093789;28;20462;-74
2021/03/22 02:57:55;;;;;;;40.72;29.85;;;2.80;99.90;;;;;;5093958;28;20032;-74
2021/03/22 03:00:33;;;;;;;41.65;31.92;;;2.70;99.90;;;;;;5094086;28;20585;-74
2021/03/22 03:03:03;;;;;;;43.25;30.67;;;2.20;99.90;;;;;;5094120;28;20387;-74
2021/03/22 03:05:31;;;;;;;41.40;31.08;;;2.40;99.90;;;;;;5094280;28;20456;-74
2021/03/22 03:08:19;;;;;;;43.75;30.73;;;2.40;99.90;;;;;;5094034;28;20017;-74
2021/03/22 03:10:45;;;;;;;45.72;31.58;;;2.40;99.90;;;;;;5093779;28;20034;-73
2021/03/22 03:13:10;;;;;;;41.28;31.13;;;2.10;99.90;;;;;;5093723;28;20024;-74
2021/03/22 03:15:36;;;;;;;44.53;31.27;;;2.00;99.90;;;;;;5093308;28;20060;-74
2021/03/22 03:18:02;;;;;;;39.30;28.38;;;2.20;99.90;;;;;;5093791;28;20439;-75
2021/03/22 03:20:30;;;;;;;38.80;29.63;;;2.30;99.90;;;;;;5093894;28;20054;-73
2021/03/22 03:22:58;;;;;;;39.97;29.42;;;2.50;99.90;;;;;;5093733;28;20036;-73
2021/03/22 03:25:25;;;;;;;38.47;29.25;;;2.60;99.90;;;;;;5093459;28;20551;-73
2021/03/22 03:28:22;;;;;;;41.80;29.88;;;2.70;99.90;;;;;;5075635;28;20016;-74
2021/03/22 03:30:48;;;;;;;36.72;28.20;;;2.70;99.90;;;;;;5093514;28;20024;-73
2021/03/22 03:33:15;;;;;;;37.60;29.67;;;2.70;99.90;;;;;;5093518;28;20023;-74
2021/03/22 03:35:43;;;;;;;42.33;29.25;;;2.60;99.90;;;;;;5092790;28;20040;-74
2021/03/22 03:38:10;;;;;;;38.40;29.75;;;2.60;99.90;;;;;;5075291;28;20157;-73
2021/03/22 03:40:47;;;;;;;37.30;27.50;;;2.70;99.90;;;;;;5093213;28;20518;-74
2021/03/22 03:43:14;;;;;;;39.50;27.65;;;2.70;99.90;;;;;;5093171;28;20095;-73
2021/03/22 03:45:42;;;;;;;39.28;27.77;;;2.70;99.90;;;;;;5093089;28;20383;-73
2021/03/22 03:48:09;;;;;;;38.53;29.00;;;2.80;99.90;;;;;;5093276;28;20387;-73
2021/03/22 03:50:36;;;;;;;39.97;30.15;;;2.70;99.90;;;;;;5074459;28;20035;-73
2021/03/22 03:53:02;;;;;;;40.65;29.65;;;2.70;99.90;;;;;;5075003;28;20036;-74
2021/03/22 03:55:30;;;;;;;45.75;32.70;;;2.80;99.90;;;;;;5092673;28;20047;-74
2021/03/22 03:57:57;;;;;;;48.63;31.63;;;2.50;99.90;;;;;;5092434;28;20020;-74
2021/03/22 04:00:31;;;;;;;45.08;32.97;;;2.60;99.90;;;;;;5092902;28;20076;-76
2021/03/22 04:02:58;;;;;;;43.88;32.67;;;2.70;99.90;;;;;;5074887;28;20023;-76
2021/03/22 04:05:27;;;;;;;42.83;31.27;;;2.70;99.90;;;;;;5074413;28;20054;-75
2021/03/22 04:07:54;;;;;;;41.25;29.23;;;2.70;99.90;;;;;;5092957;28;20031;-76
2021/03/22 04:10:20;;;;;;;41.80;29.08;;;2.70;99.90;;;;;;5092956;28;20027;-76
2021/03/22 04:12:46;;;;;;;42.45;30.20;;;2.70;99.90;;;;;;5092727;28;20049;-76
2021/03/22 04:15:14;;;;;;;39.33;29.65;;;2.70;99.90;;;;;;5092419;28;20036;-77
2021/03/22 04:17:41;;;;;;;39.10;29.17;;;2.60;99.90;;;;;;5092532;28;20018;-75
2021/03/22 04:20:07;;;;;;;39.25;29.50;;;2.60;99.90;;;;;;5092285;28;20473;-74
2021/03/22 04:22:33;;;;;;;39.28;27.23;;;2.70;99.90;;;;;;5074279;28;20031;-74
2021/03/22 04:24:59;;;;;;;37.95;27.73;;;2.60;99.90;;;;;;5074332;28;20028;-74
2021/03/22 04:27:25;;;;;;;36.60;27.52;;;2.60;99.90;;;;;;5092013;28;20069;-74
2021/03/22 04:29:51;;;;;;;39.00;26.35;;;2.70;99.90;;;;;;5092367;28;20035;-74
2021/03/22 04:32:17;;;;;;;35.42;25.15;;;2.70;99.90;;;;;;5092768;28;20065;-74
2021/03/22 04:34:42;;;;;;;34.47;25.88;;;2.80;99.90;;;;;;5092026;28;20483;-75
2021/03/22 04:37:08;;;;;;;32.08;24.70;;;2.70;99.90;;;;;;5092042;28;20077;-75
2021/03/22 04:39:35;;;;;;;32.08;24.27;;;2.70;99.90;;;;;;5092418;28;20028;-76
2021/03/22 04:42:00;;;;;;;29.05;22.60;;;2.70;99.90;;;;;;5091876;28;20024;-75
2021/03/22 04:44:26;;;;;;;28.77;22.13;;;2.70;99.90;;;;;;5092534;28;20020;-75
2021/03/22 04:46:52;;;;;;;26.65;20.83;;;2.70;99.90;;;;;;5074056;28;20031;-74
2021/03/22 04:49:17;;;;;;;29.50;21.45;;;2.70;99.90;;;;;;5092105;28;20374;-75
2021/03/22 04:51:43;;;;;;;28.95;20.42;;;2.80;99.90;;;;;;5091642;28;20138;-75
2021/03/22 04:54:09;;;;;;;26.65;20.50;;;2.80;99.90;;;;;;5091755;28;20040;-73
2021/03/22 04:56:35;;;;;;;28.17;20.05;;;2.70;99.90;;;;;;5073758;28;20016;-75
2021/03/22 04:59:01;;;;;;;28.05;20.70;;;2.40;99.90;;;;;;5073549;28;20031;-76
2021/03/22 05:01:27;;;;;;;24.55;18.08;;;2.60;99.90;;;;;;5092088;28;20054;-74
2021/03/22 05:03:53;;;;;;;25.42;18.17;;;2.70;99.90;;;;;;5092298;28;20016;-74
2021/03/22 05:06:19;;;;;;;23.25;18.02;;;2.60;99.90;;;;;;5091875;28;20491;-74
2021/03/22 05:08:45;;;;;;;23.23;17.20;;;2.60;99.90;;;;;;5090899;28;20024;-75
2021/03/22 05:11:16;;;;;;;25.58;18.13;;;2.60;99.90;;;;;;5091606;28;20020;-76
2021/03/22 05:13:42;;;;;;;24.80;17.30;;;2.50;99.90;;;;;;5091473;28;20017;-75
2021/03/22 05:16:08;;;;;;;26.80;18.35;;;2.40;99.90;;;;;;5073612;28;20042;-75
2021/03/22 05:18:33;;;;;;;26.52;17.77;;;2.60;99.90;;;;;;5091610;28;20074;-76
2021/03/22 05:21:03;;;;;;;22.40;17.90;;;2.60;99.90;;;;;;5091258;28;20062;-74
2021/03/22 05:23:30;;;;;;;26.85;17.95;;;2.60;99.90;;;;;;5091652;28;20031;-75
2021/03/22 05:25:58;;;;;;;27.77;20.25;;;2.30;99.90;;;;;;5091486;28;20029;-74
2021/03/22 05:28:25;;;;;;;34.63;24.23;;;2.40;99.90;;;;;;5091526;28;20371;-73
2021/03/22 05:30:52;;;;;;;34.47;25.67;;;2.40;99.90;;;;;;5091677;28;20020;-76
2021/03/22 05:33:20;;;;;;;34.78;26.20;;;2.40;99.90;;;;;;5073370;28;20032;-76
2021/03/22 05:35:48;;;;;;;38.97;26.35;;;2.40;99.90;;;;;;5073200;28;20387;-75
2021/03/22 05:38:14;;;;;;;39.63;25.52;;;2.20;99.90;;;;;;5091503;28;20107;-75
2021/03/22 05:40:50;;;;;;;34.97;24.20;;;2.20;99.90;;;;;;5073131;28;20020;-75
2021/03/22 05:43:40;;;;;;;34.47;24.13;;;2.10;99.90;;;;;;5073230;28;20028;-75
2021/03/22 05:46:22;;;;;;;34.77;23.83;;;2.40;99.90;;;;;;5091063;28;20023;-75
2021/03/22 05:49:05;;;;;;;32.55;22.77;;;2.60;99.90;;;;;;5091314;28;20079;-76
2021/03/22 05:51:37;;;;;;;34.40;24.00;;;2.70;99.90;;;;;;5090667;28;20036;-77
2021/03/22 05:54:31;;;;;;;31.98;24.17;;;2.80;99.90;;;;;;5091302;28;20086;-76
2021/03/22 05:57:08;;;;;;;33.22;24.42;;;2.80;99.90;;;;;;5052009;28;20115;-74
2021/03/22 05:59:44;;;;;;;33.38;24.38;;;2.90;99.90;;;;;;5091269;28;20020;-75
2021/03/22 06:02:51;;;;;;;30.77;23.50;;;2.90;99.90;;;;;;5072962;28;20032;-75
2021/03/22 06:05:48;;;;;;;31.40;24.50;;;2.90;99.90;;;;;;5090556;28;20036;-74
2021/03/22 06:08:35;;;;;;;34.47;24.48;;;2.90;99.90;;;;;;5091232;28;20020;-75
2021/03/22 06:11:18;;;;;;;26.77;21.42;;;2.90;99.90;;;;;;5090864;28;20028;-75
2021/03/22 06:13:49;;;;;;;28.65;22.73;;;3.00;99.90;;;;;;5090783;28;20426;-75
2021/03/22 06:16:27;;;;;;;26.92;22.55;;;2.80;99.90;;;;;;5091020;28;20020;-74
2021/03/22 06:19:22;;;;;;;43.80;28.63;;;2.90;99.90;;;;;;5090641;28;20024;-74
2021/03/22 06:21:49;;;;;;;56.05;35.45;;;4.20;99.90;;;;;;5073294;28;20040;-74
2021/03/22 06:24:19;;;;;;;30.92;23.88;;;4.50;99.90;;;;;;5094501;28;20038;-75
2021/03/22 06:26:47;;;;;;;46.67;30.58;;;3.90;99.90;;;;;;5094970;28;20095;-75
2021/03/22 06:29:30;;;;;;;64.57;39.45;;;3.80;99.90;;;;;;5095728;28;20050;-75
2021/03/22 06:32:07;;;;;;;63.58;40.38;;;4.30;99.90;;;;;;5094538;28;20031;-77
2021/03/22 06:34:53;;;;;;;65.47;39.45;;;4.70;99.90;;;;;;5070117;28;20024;-74
2021/03/22 06:37:32;;;;;;;38.00;28.38;;;4.90;99.90;;;;;;5096390;28;20036;-73
2021/03/22 06:40:14;;;;;;;30.52;22.85;;;4.30;99.90;;;;;;5097482;28;20028;-73
2021/03/22 06:42:43;;;;;;;30.48;22.77;;;4.00;99.90;;;;;;5094404;28;20051;-74
2021/03/22 06:45:29;;;;;;;32.88;23.15;;;3.70;99.90;;;;;;5075712;28;20024;-75
2021/03/22 06:48:16;;;;;;;29.83;21.70;;;3.60;99.90;;;;;;5094151;28;20401;-74
2021/03/22 06:50:42;;;;;;;29.65;19.75;;;3.50;99.90;;;;;;5094264;28;20422;-73
2021/03/22 06:53:08;;;;;;;24.40;17.70;;;3.50;99.90;;;;;;5094604;28;20039;-74
2021/03/22 06:55:40;;;;;;;16.77;13.88;;;3.20;99.90;;;;;;5076092;28;20036;-73
2021/03/22 06:58:07;;;;;;;11.55;9.55;;;3.10;99.90;;;;;;5075784;28;20025;-73
2021/03/22 07:00:36;;;;;;;12.30;9.82;;;2.50;99.90;;;;;;5087131;28;20032;-73
2021/03/22 07:03:23;;;;;;;9.90;8.57;;;2.70;99.90;;;;;;5075007;28;20021;-75
2021/03/22 07:05:49;;;;;;;12.65;8.23;;;2.50;99.90;;;;;;5094026;28;20151;-73
2021/03/22 07:08:19;;;;;;;13.38;8.93;;;2.60;99.90;;;;;;5093940;28;20040;-75
2021/03/22 07:10:54;;;;;;;14.13;8.88;;;2.90;99.90;;;;;;5093441;28;20020;-74
2021/03/22 07:13:27;;;;;;;6.75;4.35;;;2.80;99.90;;;;;;5093857;28;20035;-74
2021/03/22 07:15:59;;;;;;;6.15;4.43;;;2.50;99.90;;;;;;5073305;28;20102;-74
2021/03/22 07:18:33;;;;;;;5.53;4.30;;;2.50;99.90;;;;;;5086654;28;20016;-75
2021/03/22 07:20:59;;;;;;;4.70;4.20;;;2.60;99.90;;;;;;5092166;28;20097;-74
2021/03/22 07:23:26;;;;;;;5.03;4.35;;;2.60;99.90;;;;;;5092559;28;20484;-73
2021/03/22 07:25:55;;;;;;;5.18;4.47;;;2.60;99.90;;;;;;5093528;28;20044;-74
2021/03/22 07:28:39;;;;;;;5.20;4.70;;;2.70;99.90;;;;;;5093193;28;20099;-74
2021/03/22 07:31:27;;;;;;;4.88;4.38;;;2.80;99.90;;;;;;5092504;28;20348;-74
2021/03/22 07:34:17;;;;;;;4.75;4.13;;;2.80;99.90;;;;;;5092882;28;20028;-73
2021/03/22 07:36:47;;;;;;;4.30;3.90;;;2.70;99.90;;;;;;5075162;28;20035;-75
2021/03/22 07:39:26;;;;;;;4.65;4.15;;;2.70;99.90;;;;;;5093138;28;20437;-75
2021/03/22 07:42:05;;;;;;;5.32;4.30;;;2.70;99.90;;;;;;5093156;28;20112;-75
2021/03/22 07:44:45;;;;;;;7.75;4.90;;;2.70;99.90;;;;;;5093004;28;20020;-75
2021/03/22 07:47:45;;;;;;;5.88;5.22;;;2.80;99.90;;;;;;5073282;28;20032;-74
2021/03/22 07:50:10;;;;;;;5.68;4.70;;;2.90;99.90;;;;;;5055470;28;20102;-74
2021/03/22 07:52:40;;;;;;;5.07;4.25;;;2.70;99.90;;;;;;5074598;28;20074;-74
2021/03/22 07:55:19;;;;;;;6.55;4.50;;;2.70;99.90;;;;;;5074748;28;20040;-74
2021/03/22 07:58:14;;;;;;;6.13;5.00;;;2.80;99.90;;;;;;5092534;28;20024;-74
2021/03/22 08:01:05;;;;;;;7.53;5.45;;;2.70;99.90;;;;;;5092890;28;20364;-75
2021/03/22 08:03:43;;;;;;;;;;;2.50;99.90;;;;;;5092924;28;20024;-74
2021/03/22 08:06:18;;;;;;;5.13;4.40;;;2.50;99.90;;;;;;5092732;28;19966;-74
2021/03/22 08:08:54;;;;;;;6.25;5.65;;;2.40;99.90;;;;;;5074451;28;20028;-74
2021/03/22 08:11:28;;;;;;;6.68;5.70;;;2.20;99.90;;;;;;5092967;28;20023;-74
2021/03/22 08:14:27;;;;;;;6.80;5.60;;;2.30;99.90;;;;;;5087525;28;20028;-75
2021/03/22 08:16:56;;;;;;;6.03;4.90;;;2.20;99.90;;;;;;5072186;28;20028;-76
2021/03/22 08:19:41;;;;;;;8.25;6.30;;;2.10;99.90;;;;;;5084578;28;20054;-75
2021/03/22 08:22:23;;;;;;;6.10;5.50;;;2.20;99.90;;;;;;5088914;28;20016;-74
2021/03/22 08:25:01;;;;;;;6.25;4.78;;;2.30;99.90;;;;;;5092236;28;20285;-74
2021/03/22 08:27:34;;;;;;;5.60;4.80;;;2.20;99.90;;;;;;5071046;28;20028;-76
2021/03/22 08:30:37;;;;;;;6.22;4.60;;;2.30;99.90;;;;;;5071162;28;20017;-76
2021/03/22 08:33:09;;;;;;;5.60;4.43;;;2.40;99.90;;;;;;5073789;28;20054;-75
2021/03/22 08:35:41;;;;;;;6.70;5.32;;;2.40;99.90;;;;;;5092485;28;20040;-74
2021/03/22 08:38:13;;;;;;;5.70;4.70;;;2.60;99.90;;;;;;5092222;28;20026;-73
2021/03/22 08:40:52;;;;;;;5.43;4.93;;;2.60;99.90;;;;;;5074168;28;20028;-74
2021/03/22 08:43:21;;;;;;;4.97;4.47;;;2.70;99.90;;;;;;5091858;28;20100;-73
2021/03/22 08:46:06;;;;;;;5.72;5.03;;;2.80;99.90;;;;;;5071846;28;20024;-74
2021/03/22 08:48:32;;;;;;;4.80;4.30;;;2.80;99.90;;;;;;5077567;28;20024;-76
2021/03/22 08:51:01;;;;;;;5.20;4.70;;;2.80;99.90;;;;;;5091382;28;20101;-75
2021/03/22 08:53:35;;;;;;;6.50;5.13;;;2.70;99.90;;;;;;5073505;28;20434;-74
2021/03/22 08:56:05;;;;;;;7.40;5.28;;;2.80;99.90;;;;;;5091708;28;20063;-73
2021/03/22 08:58:40;;;;;;;5.25;4.55;;;2.90;99.90;;;;;;5073436;28;20028;-75
2021/03/22 09:01:08;;;;;;;5.25;4.60;;;3.00;99.90;;;;;;5091544;28;20046;-73
2021/03/22 09:03:40;;;;;;;5.22;4.53;;;2.90;99.90;;;;;;5091657;28;20024;-76
2021/03/22 09:06:25;;;;;;;5.82;4.78;;;3.00;99.90;;;;;;5091913;28;20081;-74
2021/03/22 09:08:53;;;;;;;5.47;4.55;;;3.10;99.90;;;;;;5091613;28;20385;-75
2021/03/22 09:11:28;;;;;;;5.93;4.30;;;3.20;99.90;;;;;;5073472;28;20017;-74
2021/03/22 09:13:58;;;;;;;4.25;3.85;;;3.20;99.90;;;;;;5091323;28;20019;-75
2021/03/22 09:16:24;;;;;;;5.80;4.68;;;3.10;99.90;;;;;;5091477;28;20039;-75
2021/03/22 09:19:37;;;;;;;6.57;4.72;;;3.20;99.90;;;;;;5090578;28;20018;-74
2021/03/22 09:22:03;;;;;;;6.25;5.25;;;3.20;99.90;;;;;;5053060;28;20499;-75
2021/03/22 09:24:39;;;;;;;9.65;5.00;;;3.20;99.90;;;;;;5100965;28;20027;-74
2021/03/22 09:27:13;;;;;;;5.50;4.80;;;3.20;99.90;;;;;;5075748;28;20471;-74
2021/03/22 09:29:40;;;;;;;6.00;4.05;;;3.30;99.90;;;;;;5091106;28;20035;-74
2021/03/22 09:32:33;;;;;;;5.57;4.68;;;3.30;99.90;;;;;;5091278;28;20353;-75
2021/03/22 09:35:18;;;;;;;6.18;4.88;;;3.40;99.90;;;;;;5090687;28;20094;-74
2021/03/22 09:37:45;;;;;;;8.30;5.00;;;3.40;99.90;;;;;;5090494;28;20024;-74
2021/03/22 09:40:23;;;;;;;6.25;4.57;;;3.40;99.90;;;;;;5090926;28;20070;-75
2021/03/22 09:45:50;;;;;;;5.78;5.18;;;3.60;99.90;;;;;;5090787;28;20028;-74
2021/03/22 09:48:16;;;;;;;5.32;4.82;;;3.50;99.90;;;;;;5090967;28;20023;-74
2021/03/22 09:51:03;;;;;;;7.53;5.38;;;3.40;99.90;;;;;;5090907;28;20048;-74
2021/03/22 09:53:54;;;;;;;5.30;4.40;;;3.50;99.90;;;;;;5070806;28;20037;-75
2021/03/22 09:56:29;;;;;;;5.45;4.93;;;3.50;99.90;;;;;;5074787;28;20087;-75
2021/03/22 09:59:35;;;;;;;5.15;4.65;;;3.40;99.90;;;;;;5092610;28;20036;-75
2021/03/22 10:02:29;;;;;;;6.60;5.20;;;3.50;99.90;;;;;;5094612;28;20024;-73
2021/03/22 10:05:25;;;;;;;5.22;4.40;;;3.40;99.90;;;;;;5080905;28;20021;-76
2021/03/22 10:08:10;;;;;;;7.70;5.10;;;3.40;99.90;;;;;;5094338;28;20043;-75
2021/03/22 10:10:40;;;;;;;5.07;4.47;;;3.40;99.90;;;;;;5076405;28;20365;-75
2021/03/22 10:13:21;;;;;;;7.82;6.05;;;3.40;99.90;;;;;;5095200;28;20056;-75
2021/03/22 10:15:55;;;;;;;6.05;5.10;;;3.40;99.90;;;;;;5050194;28;20039;-76
2021/03/22 10:18:37;;;;;;;6.55;4.90;;;3.40;99.90;;;;;;5061509;28;20051;-76
2021/03/22 10:21:15;;;;;;;5.18;4.68;;;3.20;99.90;;;;;;5076383;28;20123;-76
2021/03/22 10:23:55;;;;;;;6.68;5.95;;;3.30;99.90;;;;;;5094443;28;20028;-75
2021/03/22 10:26:36;;;;;;;5.93;5.30;;;3.30;99.90;;;;;;5093242;28;20031;-74
2021/03/22 10:29:20;;;;;;;6.25;4.72;;;3.30;99.90;;;;;;5062107;28;20179;-76
2021/03/22 10:32:07;;;;;;;5.03;4.53;;;3.20;99.90;;;;;;5074152;28;20056;-77
2021/03/22 10:34:42;;;;;;;5.97;5.38;;;3.30;99.90;;;;;;5088478;28;20032;-77
2021/03/22 10:37:16;;;;;;;6.38;4.90;;;3.20;99.90;;;;;;5104864;28;20094;-76
2021/03/22 10:39:47;;;;;;;5.80;5.00;;;3.40;99.90;;;;;;5095954;28;20032;-77
2021/03/22 10:42:25;;;;;;;7.80;5.35;;;3.40;99.90;;;;;;5114848;28;20042;-76
2021/03/22 10:44:55;;;;;;;5.93;5.00;;;3.60;99.90;;;;;;5088897;28;20055;-74
2021/03/22 10:47:23;;;;;;;5.32;4.63;;;3.40;99.90;;;;;;5058876;28;20085;-76
2021/03/22 10:49:51;;;;;;;5.68;5.05;;;3.40;99.90;;;;;;5091939;28;20080;-76
2021/03/22 10:52:24;;;;;;;6.53;5.70;;;3.40;99.90;;;;;;5075299;28;20052;-77
2021/03/22 10:54:51;;;;;;;6.93;5.45;;;3.70;99.90;;;;;;5088353;28;20499;-75
2021/03/22 10:57:33;;;;;;;6.22;5.20;;;3.70;99.90;;;;;;5094638;28;20378;-77
2021/03/22 11:00:07;;;;;;;6.35;4.70;;;3.60;99.90;;;;;;5093089;28;20043;-77
2021/03/22 11:02:43;;;;;;;6.00;5.05;;;3.50;99.90;;;;;;5072239;28;20016;-75
2021/03/22 11:05:13;;;;;;;6.32;5.50;;;3.50;99.90;;;;;;5089047;28;20032;-75
2021/03/22 11:07:39;;;;;;;6.40;5.45;;;3.70;99.90;;;;;;5105912;28;20057;-74
2021/03/22 11:10:14;;;;;;;6.97;5.70;;;3.70;99.90;;;;;;5113082;28;20413;-76
2021/03/22 11:12:46;;;;;;;5.20;4.70;;;3.90;99.90;;;;;;5098299;28;20123;-75
2021/03/22 11:15:33;;;;;;;6.20;5.57;;;3.70;99.90;;;;;;5082297;28;20479;-75
2021/03/22 11:18:00;;;;;;;8.43;5.93;;;4.10;99.90;;;;;;5054877;28;20017;-74
2021/03/22 11:20:29;;;;;;;7.15;5.97;;;4.00;99.90;;;;;;5076307;28;20024;-76
2021/03/22 11:23:27;;;;;;;6.40;5.70;;;4.10;99.90;;;;;;5092173;28;20046;-75
2021/03/22 11:25:57;;;;;;;7.50;5.32;;;4.10;99.90;;;;;;5073315;28;20027;-76
2021/03/22 11:28:28;;;;;;;7.85;6.38;;;4.50;99.90;;;;;;5088850;28;20016;-77
2021/03/22 11:30:53;;;;;;;;;;;4.60;99.90;;;;;;5091905;28;20027;-75
2021/03/22 11:33:31;;;;;;;6.40;5.70;;;4.30;99.90;;;;;;5091956;28;20003;-76
2021/03/22 11:36:12;;;;;;;6.55;5.88;;;4.50;99.90;;;;;;5092367;28;20147;-77
2021/03/22 11:38:55;;;;;;;8.05;6.57;;;4.30;99.90;;;;;;5091609;28;20044;-78
2021/03/22 11:41:37;;;;;;;8.40;6.65;;;4.40;99.90;;;;;;5089366;28;20028;-75
2021/03/22 11:44:25;;;;;;;7.45;6.13;;;4.50;99.90;;;;;;5089843;28;20040;-76
2021/03/22 11:46:56;;;;;;;7.07;6.25;;;4.30;99.90;;;;;;5090933;28;20543;-76
2021/03/22 11:49:45;;;;;;;7.03;6.25;;;4.30;99.90;;;;;;5088657;28;20019;-75
2021/03/22 11:52:31;;;;;;;7.68;5.97;;;4.30;99.90;;;;;;5090930;28;20044;-74
2021/03/22 11:55:04;;;;;;;7.25;6.13;;;4.30;99.90;;;;;;5089074;28;20047;-73
2021/03/22 11:57:36;;;;;;;6.75;6.05;;;4.30;99.90;;;;;;5072635;28;20032;-76
2021/03/22 12:00:20;;;;;;;7.15;5.57;;;4.30;99.90;;;;;;5065249;28;20028;-75
2021/03/22 12:02:59;;;;;;;7.90;6.30;;;4.30;99.90;;;;;;5072264;28;20029;-76
2021/03/22 12:05:40;;;;;;;8.82;6.60;;;4.50;99.90;;;;;;5054319;28;20025;-75
2021/03/22 12:08:31;;;;;;;7.88;6.53;;;4.30;99.90;;;;;;5054447;28;20120;-76
2021/03/22 12:10:57;;;;;;;7.57;6.13;;;4.40;99.90;;;;;;5054194;28;20020;-75
2021/03/22 12:13:23;;;;;;;7.57;6.13;;;4.50;99.90;;;;;;5070917;28;20013;-74
2021/03/22 12:15:49;;;;;;;6.78;5.65;;;4.30;99.90;;;;;;5071451;28;20551;-73
2021/03/22 12:18:35;;;;;;;8.40;6.30;;;4.20;99.90;;;;;;5071169;28;20021;-75
2021/03/22 12:21:12;;;;;;;9.55;6.25;;;4.50;99.90;;;;;;5053465;28;20087;-75
2021/03/22 12:23:38;;;;;;;7.45;6.53;;;4.50;99.90;;;;;;5070811;28;20436;-74
2021/03/22 12:26:05;;;;;;;6.05;5.22;;;4.90;99.90;;;;;;5072039;28;20019;-75
2021/03/22 12:28:31;;;;;;;8.45;6.38;;;4.70;99.90;;;;;;5053822;28;20411;-74
2021/03/22 12:30:58;;;;;;;7.45;6.13;;;4.70;99.90;;;;;;5052919;28;20032;-76
2021/03/22 12:33:28;;;;;;;6.63;5.88;;;4.70;99.90;;;;;;5086839;28;20422;-74
2021/03/22 12:35:54;;;;;;;9.15;7.60;;;4.90;99.90;;;;;;5059106;28;20146;-75
2021/03/22 12:38:20;;;;;;;10.35;6.95;;;5.30;99.90;;;;;;5067739;28;20058;-76
2021/03/22 12:40:46;;;;;;;7.20;6.30;;;5.10;99.90;;;;;;5076324;28;20039;-77
2021/03/22 12:43:28;;;;;;;7.97;6.13;;;4.60;99.90;;;;;;5093490;28;20024;-75
2021/03/22 12:45:54;;;;;;;8.85;6.88;;;4.40;99.90;;;;;;5061946;28;20028;-74
2021/03/22 12:48:20;;;;;;;6.70;5.57;;;5.00;99.90;;;;;;5077479;28;20036;-74
2021/03/22 12:50:48;;;;;;;7.88;6.13;;;4.70;99.90;;;;;;5089755;28;20079;-73
2021/03/22 12:53:15;;;;;;;8.15;6.63;;;4.40;99.90;;;;;;5071360;28;20036;-75
2021/03/22 12:55:44;;;;;;;9.80;7.22;;;4.40;99.90;;;;;;5090245;28;20151;-73
2021/03/22 12:58:22;;;;;;;9.80;8.00;;;4.50;99.90;;;;;;5073464;28;20032;-73
2021/03/22 13:00:50;;;;;;;9.52;7.03;;;4.50;99.90;;;;;;5073846;28;20028;-76
2021/03/22 13:03:20;;;;;;;8.30;7.25;;;4.60;99.90;;;;;;5073310;28;20375;-75
2021/03/22 13:05:46;;;;;;;11.80;8.00;;;4.70;99.90;;;;;;5070283;28;20044;-76
2021/03/22 13:08:14;;;;;;;9.85;8.00;;;4.70;99.90;;;;;;5090963;28;20071;-79
2021/03/22 13:10:40;;;;;;;10.05;7.65;;;4.70;99.90;;;;;;5091083;28;20066;-77
2021/03/22 13:13:07;;;;;;;9.27;7.70;;;4.80;99.90;;;;;;5073139;28;20020;-78
2021/03/22 13:15:35;;;;;;;10.85;8.68;;;4.50;99.90;;;;;;5057057;28;20066;-77
2021/03/22 13:18:05;;;;;;;11.07;8.05;;;4.50;99.90;;;;;;5091042;28;20428;-87
2021/03/22 13:20:31;;;;;;;11.20;8.65;;;4.40;99.90;;;;;;5072769;28;20028;-77